Milford, IA (51351)

7:14 PM CDT on September 04, 2015 (GMT -0500)
West Sioux Estates 10 | | Change Station
CLOSE
Current Station
Personal Weather Station
Location: Milford, IA
Elevation: 1420 ft
Nearby Weather Stations

Elev 1420 ft 43.32 °N, 95.20 °W | Updated 6 minutes ago

Mostly Cloudy
Mostly Cloudy
78.5 °F
Feels Like 82 °F
N
4.0
Wind Variable Wind from East
Gusts 10.0 mph

Today
High -- | Low -- °F
--% Chance of Precip.
Yesterday
High -- | Low -- °F
Precip. -- in
6:47 AM 7:50 PM
Waning Gibbous, 54% visible
Pressure 29.89 in
Visibility 4.0 miles
Clouds Clear
Heat Index 82 °F
Dew Point 74 °F
Humidity 86%
Rainfall 0.00 in
Snow Depth Not available.
UV 0 out of 12
Pollen 9.80 out of 12
Air Quality Not available.
Flu Activity Not available.
METAR KSPW 042353Z AUTO 14008KT 4SM HZ CLR 27/23 A2991 RMK AO2 SLP120 60000 T02720228 10289 20267 50001 $
Pressure 29.89 in
Visibility 4.0 miles
Clouds Clear
Heat Index 82 °F
Dew Point 74 °F
Humidity 86%
Rainfall 0.00 in
Snow Depth Not available.
UV 0 out of 12
Pollen 9.80 out of 12
Air Quality Not available.
Flu Activity Not available.
METAR KSPW 042353Z AUTO 14008KT 4SM HZ CLR 27/23 A2991 RMK AO2 SLP120 60000 T02720228 10289 20267 50001 $

10-Day Weather Forecast

×

Almanac

Astronomy

Sep. 04, 2015 Rise Set
Actual Time
Civil Twilight
Nautical Twilight
Astronomical Twilight
Moon
Length of Visible Light
Length of Day
Tomorrow will be .
, % of the Moon is Illuminated

Today's Extremes

State Highs State Lows

Community

WunderPhotos

Upload Photos

1,852,345 photos uploaded!

WunderBlogs® & News

Nearby

Air Quality

  Air Quality AQ Index Pollutant
Not available.

Snow Depth

Station Depth Elevation

Earthquake Activity

City Distance Mag. Time & Date
Minimum magnitude displayed is 2.5.

Coastal Water Temperatures

Place Temperature

Stations

Nearby Weather Stations

Station Location Temp. Windchill Dew Point Humidity Wind Precip. Elev Updated Type